Time;durP1;ratioP1;P1;durP2;ratioP2;P2;SDS_P1;SDS_P2;PMS_P1;PMS_P2;Temp;Humidity;BMP_temperature;BMP_pressure;BME280_temperature;BME280_humidity;BME280_pressure;Samples;Min_cycle;Max_cycle;Signal;HPM_P1;HPM_P2
2021/09/25 00:02:43;;;;;;;5.90;3.85;;;19.50;74.60;;;;;;10498229;28;20021;-62
2021/09/25 00:07:44;;;;;;;4.82;3.33;;;19.50;74.60;;;;;;10495607;28;20119;-62
2021/09/25 00:12:45;;;;;;;8.82;3.85;;;19.50;74.70;;;;;;10496565;28;20029;-62
2021/09/25 00:17:46;;;;;;;3.78;3.00;;;19.40;74.60;;;;;;10496331;28;20032;-62
2021/09/25 00:22:47;;;;;;;4.90;3.20;;;19.40;74.50;;;;;;10506270;28;20028;-62
2021/09/25 00:27:48;;;;;;;4.63;3.75;;;19.40;74.60;;;;;;10469867;28;20484;-62
2021/09/25 00:32:49;;;;;;;4.18;2.95;;;19.50;74.60;;;;;;10486711;28;20043;-62
2021/09/25 00:37:50;;;;;;;4.72;2.95;;;19.40;74.50;;;;;;10495495;28;20032;-62
2021/09/25 00:42:51;;;;;;;5.10;3.70;;;19.50;74.60;;;;;;10495483;28;20029;-62
2021/09/25 00:47:52;;;;;;;4.40;3.15;;;19.40;74.50;;;;;;10495652;28;20361;-62
2021/09/25 00:52:54;;;;;;;3.97;3.30;;;19.40;74.40;;;;;;10478417;28;20028;-62
2021/09/25 00:58:01;;;;;;;5.00;3.35;;;19.40;74.50;;;;;;10478616;28;20024;-62
2021/09/25 01:03:03;;;;;;;8.73;3.72;;;19.40;74.50;;;;;;10496892;28;20029;-62
2021/09/25 01:08:03;;;;;;;4.03;3.08;;;19.40;74.50;;;;;;10494940;28;20044;-62
2021/09/25 01:13:04;;;;;;;3.60;2.75;;;19.40;74.40;;;;;;10495258;28;20031;-62
2021/09/25 01:18:05;;;;;;;4.28;3.10;;;19.40;74.50;;;;;;10495069;28;20020;-62
2021/09/25 01:23:06;;;;;;;2.65;2.33;;;19.50;74.90;;;;;;10495235;28;20063;-62
2021/09/25 01:28:07;;;;;;;3.42;2.60;;;19.40;74.50;;;;;;10495092;28;20041;-62
2021/09/25 01:33:08;;;;;;;4.65;3.22;;;19.40;74.60;;;;;;10489251;28;20029;-62
2021/09/25 01:38:08;;;;;;;3.95;2.97;;;19.40;74.70;;;;;;10495888;28;20178;-62
2021/09/25 01:43:09;;;;;;;5.10;2.53;;;19.40;74.70;;;;;;10494629;28;20036;-62
2021/09/25 01:48:11;;;;;;;5.45;2.83;;;19.40;74.70;;;;;;10494597;28;20025;-62
2021/09/25 01:53:12;;;;;;;4.03;3.28;;;19.40;74.70;;;;;;10494463;28;20035;-62
2021/09/25 01:58:13;;;;;;;3.30;2.65;;;19.40;74.80;;;;;;10494132;28;20031;-62
2021/09/25 02:03:14;;;;;;;4.13;3.22;;;19.40;74.80;;;;;;10494971;28;20334;-62
2021/09/25 02:08:14;;;;;;;3.03;2.72;;;19.40;74.90;;;;;;10501438;28;20036;-62
2021/09/25 02:13:16;;;;;;;3.63;2.55;;;19.40;74.80;;;;;;10502562;28;20033;-62
2021/09/25 02:18:16;;;;;;;3.40;3.10;;;19.40;74.80;;;;;;10502328;28;20029;-63
2021/09/25 02:23:17;;;;;;;4.07;2.78;;;19.40;74.70;;;;;;10512040;28;20032;-62
2021/09/25 02:28:18;;;;;;;8.32;3.15;;;19.40;74.80;;;;;;10483890;28;20113;-62
2021/09/25 02:33:18;;;;;;;3.55;2.53;;;19.40;74.70;;;;;;10487233;28;20443;-62
2021/09/25 02:38:19;;;;;;;3.40;2.50;;;19.40;74.70;;;;;;10501357;28;20355;-62
2021/09/25 02:43:21;;;;;;;3.25;2.63;;;19.40;74.70;;;;;;10501641;28;20028;-62
2021/09/25 02:48:22;;;;;;;4.55;2.80;;;19.40;74.70;;;;;;10500126;28;20074;-62
2021/09/25 02:53:22;;;;;;;4.20;2.88;;;19.40;74.70;;;;;;10499673;28;20101;-62
2021/09/25 02:58:23;;;;;;;4.43;2.88;;;19.40;74.60;;;;;;10500623;28;20478;-62
2021/09/25 03:03:24;;;;;;;3.28;2.70;;;19.40;74.60;;;;;;10500042;28;20060;-61
2021/09/25 03:08:24;;;;;;;4.32;2.55;;;19.40;74.50;;;;;;10499409;28;20055;-62
2021/09/25 03:13:25;;;;;;;4.25;2.92;;;19.40;74.80;;;;;;10498789;28;20083;-62
2021/09/25 03:18:26;;;;;;;3.20;2.40;;;19.40;74.70;;;;;;10499655;28;20473;-62
2021/09/25 03:23:27;;;;;;;4.43;2.95;;;19.40;74.70;;;;;;10508579;28;20028;-61
2021/09/25 03:28:27;;;;;;;3.95;3.15;;;19.30;74.50;;;;;;10481347;28;20117;-62
2021/09/25 03:33:28;;;;;;;4.53;3.35;;;19.30;74.70;;;;;;10498033;28;20108;-62
2021/09/25 03:38:29;;;;;;;4.93;3.13;;;19.30;74.60;;;;;;10497653;28;20494;-62
2021/09/25 03:43:30;;;;;;;6.28;3.25;;;19.30;74.60;;;;;;10497828;28;20029;-62
2021/09/25 03:48:30;;;;;;;4.38;3.20;;;19.30;74.50;;;;;;10497412;28;20040;-62
2021/09/25 03:53:31;;;;;;;4.72;2.60;;;19.30;74.40;;;;;;10498341;28;20063;-62
2021/09/25 03:58:32;;;;;;;4.07;2.75;;;19.30;74.50;;;;;;10498045;28;20112;-62
2021/09/25 04:03:33;;;;;;;3.38;2.70;;;19.30;74.50;;;;;;10498002;28;20071;-62
2021/09/25 04:08:34;;;;;;;5.38;3.50;;;19.40;74.50;;;;;;10493513;28;20020;-62
2021/09/25 04:13:35;;;;;;;5.93;3.33;;;19.40;74.40;;;;;;10495835;28;20455;-62
2021/09/25 04:18:35;;;;;;;4.53;2.95;;;19.30;74.50;;;;;;10496398;28;20039;-62
2021/09/25 04:23:37;;;;;;;4.20;2.72;;;19.30;74.60;;;;;;10482962;28;20043;-61
2021/09/25 04:28:40;;;;;;;5.22;2.95;;;19.30;74.50;;;;;;10482073;28;20052;-62
2021/09/25 04:33:40;;;;;;;4.53;2.97;;;19.30;74.40;;;;;;10479342;28;20040;-62
2021/09/25 04:38:41;;;;;;;3.90;2.95;;;19.30;74.50;;;;;;10496359;28;20055;-62
2021/09/25 04:43:42;;;;;;;3.70;2.45;;;19.30;74.40;;;;;;10494824;28;20845;-62
2021/09/25 04:48:45;;;;;;;4.57;3.28;;;19.30;74.20;;;;;;10495241;28;20421;-63
2021/09/25 04:53:46;;;;;;;4.47;3.25;;;19.30;74.10;;;;;;10494758;28;20051;-63
2021/09/25 04:58:47;;;;;;;5.18;3.05;;;19.30;74.20;;;;;;10494910;28;20119;-63
2021/09/25 05:03:48;;;;;;;4.28;2.70;;;19.30;74.20;;;;;;10496654;28;20036;-62
2021/09/25 05:08:49;;;;;;;4.45;2.95;;;19.30;74.30;;;;;;10495063;28;20037;-63
2021/09/25 05:13:50;;;;;;;5.38;3.72;;;19.30;74.20;;;;;;10499716;28;20421;-60
2021/09/25 05:18:50;;;;;;;8.55;3.97;;;19.40;75.40;;;;;;10499458;28;20365;-62
2021/09/25 05:23:51;;;;;;;7.75;3.42;;;19.60;74.50;;;;;;10494900;28;20108;-59
2021/09/25 05:28:52;;;;;;;10.15;4.22;;;19.60;74.70;;;;;;10495437;28;20119;-60
2021/09/25 05:33:53;;;;;;;7.05;4.03;;;19.70;74.80;;;;;;10494209;28;20457;-64
2021/09/25 05:38:54;;;;;;;7.18;3.72;;;19.60;74.90;;;;;;10496996;28;20107;-60
2021/09/25 05:43:55;;;;;;;8.18;3.67;;;19.60;74.60;;;;;;10501386;28;20506;-61
2021/09/25 05:48:55;;;;;;;22.50;5.22;;;19.60;75.10;;;;;;10499053;28;20028;-62
2021/09/25 05:53:56;;;;;;;10.18;3.65;;;19.60;75.10;;;;;;10500849;28;20115;-62
2021/09/25 05:58:57;;;;;;;20.88;6.25;;;19.70;75.40;;;;;;10500070;28;20036;-61
2021/09/25 06:03:57;;;;;;;18.35;4.65;;;19.60;75.00;;;;;;10502961;28;20108;-61
2021/09/25 06:08:58;;;;;;;25.45;5.72;;;19.60;75.70;;;;;;10501115;28;20064;-62
2021/09/25 06:13:59;;;;;;;27.10;6.30;;;19.60;74.90;;;;;;10502134;28;20056;-62
2021/09/25 06:18:59;;;;;;;14.93;4.90;;;19.60;75.00;;;;;;10507597;28;20022;-63
2021/09/25 06:24:00;;;;;;;22.20;5.38;;;19.60;75.30;;;;;;10505009;28;20024;-59
2021/09/25 06:29:01;;;;;;;16.60;4.97;;;19.60;75.30;;;;;;10501392;28;20106;-61
2021/09/25 06:34:02;;;;;;;17.20;5.45;;;19.60;75.60;;;;;;10490026;28;20036;-60
2021/09/25 06:39:03;;;;;;;16.48;5.32;;;19.50;75.90;;;;;;10499132;28;20041;-61
2021/09/25 06:44:04;;;;;;;15.63;4.30;;;19.50;75.30;;;;;;10499821;28;20112;-60
2021/09/25 06:49:05;;;;;;;15.88;4.63;;;19.50;75.40;;;;;;10498249;28;20032;-61
2021/09/25 06:54:06;;;;;;;10.88;3.95;;;19.50;75.50;;;;;;10494697;28;20043;-61
2021/09/25 06:59:06;;;;;;;8.80;4.15;;;19.50;75.60;;;;;;10495035;28;20040;-60
2021/09/25 07:04:07;;;;;;;8.60;4.38;;;19.40;75.30;;;;;;10495442;28;20111;-61
2021/09/25 07:09:08;;;;;;;11.43;4.57;;;19.40;75.40;;;;;;10499234;28;20041;-60
2021/09/25 07:14:09;;;;;;;9.93;3.67;;;19.40;75.30;;;;;;10500254;28;20523;-60
2021/09/25 07:19:10;;;;;;;10.85;4.50;;;19.40;75.20;;;;;;10506068;28;20040;-61
2021/09/25 07:24:10;;;;;;;7.78;4.22;;;19.40;75.20;;;;;;10502347;28;20112;-61
2021/09/25 07:29:11;;;;;;;7.45;3.55;;;19.40;75.30;;;;;;10499497;28;20051;-61
2021/09/25 07:34:12;;;;;;;7.32;3.58;;;19.40;75.10;;;;;;10499393;28;20174;-61
2021/09/25 07:39:12;;;;;;;8.18;3.53;;;19.40;75.10;;;;;;10481104;28;20043;-61
2021/09/25 07:44:13;;;;;;;6.88;3.92;;;19.40;75.20;;;;;;10499050;28;20103;-60
2021/09/25 07:49:14;;;;;;;6.80;3.83;;;19.40;75.10;;;;;;10496738;28;20425;-61
2021/09/25 07:54:15;;;;;;;8.55;4.28;;;19.40;75.10;;;;;;10498370;28;20166;-60
2021/09/25 07:59:15;;;;;;;9.00;4.13;;;19.40;75.10;;;;;;10496912;28;20032;-60
2021/09/25 08:04:16;;;;;;;4.97;3.10;;;19.40;75.00;;;;;;10496823;28;20405;-61
2021/09/25 08:09:20;;;;;;;6.00;3.10;;;19.40;75.10;;;;;;10497733;28;20369;-61
2021/09/25 08:14:20;;;;;;;6.88;3.58;;;19.40;75.00;;;;;;10497633;28;20033;-60
2021/09/25 08:19:21;;;;;;;6.18;3.58;;;19.40;75.00;;;;;;10506867;28;20476;-61
2021/09/25 08:24:22;;;;;;;6.47;3.70;;;19.40;74.90;;;;;;10499138;28;20421;-61
2021/09/25 08:29:23;;;;;;;9.82;3.35;;;19.40;74.90;;;;;;10494063;28;20127;-61
2021/09/25 08:34:23;;;;;;;7.35;3.72;;;19.40;75.00;;;;;;10484578;28;20503;-61
2021/09/25 08:39:25;;;;;;;5.65;2.80;;;19.40;75.00;;;;;;10497346;28;20354;-61
2021/09/25 08:44:27;;;;;;;5.85;4.05;;;19.40;74.80;;;;;;10496795;28;20028;-60
2021/09/25 08:49:28;;;;;;;5.53;3.22;;;19.40;75.40;;;;;;10497117;28;20040;-61
2021/09/25 08:54:28;;;;;;;7.80;3.47;;;19.40;74.80;;;;;;10496855;28;20079;-60
2021/09/25 08:59:29;;;;;;;6.00;3.83;;;19.40;74.80;;;;;;10495447;28;20082;-61
2021/09/25 09:04:50;;;;;;;6.57;3.60;;;19.40;74.80;;;;;;10478747;28;20058;-60
2021/09/25 09:09:52;;;;;;;7.40;3.33;;;19.40;74.80;;;;;;10495251;28;20162;-61
2021/09/25 09:14:55;;;;;;;4.57;3.00;;;19.40;74.80;;;;;;10500719;28;20060;-60
2021/09/25 09:19:56;;;;;;;5.22;2.97;;;19.40;74.80;;;;;;10512985;28;20028;-60
2021/09/25 09:24:57;;;;;;;6.70;3.58;;;19.40;74.80;;;;;;10503503;28;20099;-60
2021/09/25 09:30:14;;;;;;;5.80;3.50;;;19.40;75.80;;;;;;10497271;28;20037;-61
2021/09/25 09:35:20;;;;;;;4.28;3.10;;;19.50;76.80;;;;;;10501825;28;20157;-61
2021/09/25 09:40:21;;;;;;;8.18;3.40;;;19.50;78.60;;;;;;10486847;28;20532;-61
2021/09/25 09:45:28;;;;;;;5.10;2.90;;;19.50;78.70;;;;;;10502462;28;20025;-61
2021/09/25 09:50:29;;;;;;;7.32;3.20;;;19.50;78.40;;;;;;10485597;28;20036;-60
2021/09/25 09:55:30;;;;;;;6.30;3.75;;;19.50;78.30;;;;;;10503159;28;20472;-61
2021/09/25 10:00:32;;;;;;;6.50;3.15;;;19.50;78.10;;;;;;10503268;28;20106;-60
2021/09/25 10:05:33;;;;;;;5.68;3.50;;;19.50;78.00;;;;;;10501640;28;20033;-60
2021/09/25 10:10:36;;;;;;;6.18;3.63;;;19.50;77.80;;;;;;10502729;28;20028;-60
2021/09/25 10:15:37;;;;;;;5.68;3.60;;;19.50;77.80;;;;;;10501286;28;20392;-61
2021/09/25 10:20:39;;;;;;;5.70;3.75;;;19.50;77.70;;;;;;10512507;28;20032;-60
2021/09/25 10:25:41;;;;;;;6.25;3.80;;;19.50;77.30;;;;;;10499639;28;20031;-61
2021/09/25 10:30:42;;;;;;;6.75;3.35;;;19.50;77.00;;;;;;10500586;28;20049;-60
2021/09/25 10:35:43;;;;;;;6.18;3.55;;;19.50;76.90;;;;;;10501517;28;20105;-60
2021/09/25 10:40:43;;;;;;;4.38;3.42;;;19.50;76.90;;;;;;10500582;28;20029;-60
2021/09/25 10:45:53;;;;;;;5.00;3.33;;;19.60;76.90;;;;;;10500181;28;20480;-61
2021/09/25 10:51:11;;;;;;;9.32;4.32;;;19.50;76.90;;;;;;10516793;28;20036;-60
2021/09/25 10:56:26;;;;;;;6.22;3.92;;;19.60;76.80;;;;;;10499695;28;20397;-60
2021/09/25 11:01:39;;;;;;;5.10;3.78;;;19.50;76.70;;;;;;10483576;28;20492;-60
2021/09/25 11:06:59;;;;;;;6.20;4.28;;;19.60;76.70;;;;;;10499274;28;20032;-60
2021/09/25 11:12:12;;;;;;;5.63;3.95;;;19.60;76.70;;;;;;10499310;28;20048;-60
2021/09/25 11:17:19;;;;;;;5.70;3.80;;;19.60;76.70;;;;;;10498903;28;20035;-60
2021/09/25 11:22:38;;;;;;;7.43;4.18;;;19.60;76.60;;;;;;10509104;28;20162;-61
2021/09/25 11:27:47;;;;;;;6.15;4.32;;;19.60;76.60;;;;;;10498411;28;20070;-60
2021/09/25 11:32:59;;;;;;;4.55;3.85;;;19.60;76.50;;;;;;10499351;28;20072;-60
2021/09/25 11:38:07;;;;;;;6.72;4.28;;;19.60;76.40;;;;;;10493664;28;20036;-61
2021/09/25 11:43:15;;;;;;;4.80;3.50;;;19.60;76.40;;;;;;10498201;28;20025;-61
2021/09/25 11:48:23;;;;;;;7.53;4.25;;;19.60;76.20;;;;;;10498154;28;20032;-62
2021/09/25 11:53:27;;;;;;;6.60;4.73;;;19.60;76.20;;;;;;10497509;28;20017;-61
2021/09/25 11:58:28;;;;;;;6.63;4.55;;;19.70;76.20;;;;;;10496991;28;20294;-61
2021/09/25 12:03:32;;;;;;;9.27;5.30;;;19.70;76.20;;;;;;10496113;28;20025;-60
2021/09/25 12:08:32;;;;;;;8.80;5.97;;;19.70;76.00;;;;;;10497552;28;20021;-59
2021/09/25 12:13:41;;;;;;;7.90;5.60;;;19.70;75.50;;;;;;10497142;28;20021;-60
2021/09/25 12:18:51;;;;;;;7.88;5.80;;;19.70;76.10;;;;;;10480538;28;20040;-60
2021/09/25 12:23:57;;;;;;;7.53;6.43;;;19.70;75.50;;;;;;10494693;28;20052;-60
2021/09/25 12:29:04;;;;;;;10.98;6.50;;;19.70;75.30;;;;;;10497317;28;20076;-60
2021/09/25 12:34:07;;;;;;;7.68;6.57;;;19.70;75.30;;;;;;10487058;28;20032;-61
2021/09/25 12:39:16;;;;;;;10.85;6.18;;;19.70;75.30;;;;;;10495148;28;20119;-59
2021/09/25 12:44:20;;;;;;;9.77;6.20;;;19.70;75.30;;;;;;10494165;28;20027;-58
2021/09/25 12:49:35;;;;;;;17.35;7.78;;;19.70;76.00;;;;;;10494918;28;20045;-59
2021/09/25 12:54:43;;;;;;;11.27;6.18;;;19.80;76.10;;;;;;10512620;28;20040;-58
2021/09/25 12:59:47;;;;;;;16.05;7.00;;;19.90;76.30;;;;;;10495206;28;20041;-58
2021/09/25 13:04:54;;;;;;;17.23;7.60;;;19.90;76.10;;;;;;10494245;28;20357;-60
2021/09/25 13:10:01;;;;;;;19.13;7.28;;;19.90;76.10;;;;;;10494099;28;20037;-60
2021/09/25 13:15:12;;;;;;;19.58;6.93;;;19.90;76.30;;;;;;10493317;28;20040;-60
2021/09/25 13:20:17;;;;;;;19.80;7.43;;;19.90;76.00;;;;;;10494738;28;20039;-59
2021/09/25 13:25:18;;;;;;;18.60;7.32;;;19.90;76.20;;;;;;10495497;28;20049;-58
2021/09/25 13:30:20;;;;;;;17.75;6.43;;;19.90;76.60;;;;;;10494997;28;20067;-58
2021/09/25 13:35:21;;;;;;;15.20;7.35;;;20.00;76.50;;;;;;10494149;28;20119;-61
2021/09/25 13:40:23;;;;;;;22.00;7.78;;;19.90;75.90;;;;;;10494294;28;20120;-60
2021/09/25 13:45:23;;;;;;;16.65;7.20;;;19.90;76.00;;;;;;10493941;28;20564;-61
2021/09/25 13:50:24;;;;;;;12.90;7.80;;;19.80;76.10;;;;;;10475409;28;20159;-60
2021/09/25 13:55:25;;;;;;;12.60;7.50;;;19.80;76.00;;;;;;10493424;28;20544;-60
2021/09/25 14:00:25;;;;;;;9.32;6.20;;;19.80;76.00;;;;;;10496273;28;20108;-61
2021/09/25 14:05:27;;;;;;;16.48;6.75;;;19.80;75.90;;;;;;10499597;28;20078;-61
2021/09/25 14:10:28;;;;;;;11.80;6.68;;;19.80;75.90;;;;;;10499400;28;20059;-61
2021/09/25 14:15:28;;;;;;;12.50;6.32;;;19.70;75.70;;;;;;10500589;28;20528;-61
2021/09/25 14:20:29;;;;;;;8.18;5.95;;;19.80;76.00;;;;;;10511306;28;20067;-60
2021/09/25 14:25:30;;;;;;;10.13;6.43;;;19.80;75.90;;;;;;10497459;28;20107;-62
2021/09/25 14:30:31;;;;;;;16.45;5.47;;;19.70;76.10;;;;;;10497828;28;20426;-61
2021/09/25 14:35:32;;;;;;;13.93;6.65;;;19.80;77.40;;;;;;10500042;28;20028;-65
2021/09/25 14:40:33;;;;;;;13.77;5.90;;;20.00;76.60;;;;;;10501165;28;20056;-67
2021/09/25 14:45:34;;;;;;;12.98;5.47;;;20.20;76.10;;;;;;10500227;28;20040;-68
2021/09/25 14:50:36;;;;;;;12.23;7.57;;;20.40;75.70;;;;;;10500934;28;20040;-67
2021/09/25 14:55:37;;;;;;;18.30;7.15;;;20.50;75.90;;;;;;10499509;28;20062;-67
2021/09/25 15:00:37;;;;;;;16.95;7.30;;;20.50;75.10;;;;;;10509845;28;20037;-67
2021/09/25 15:05:38;;;;;;;15.35;8.13;;;20.60;75.00;;;;;;10498830;28;20028;-67
2021/09/25 15:10:39;;;;;;;14.40;8.43;;;20.50;75.20;;;;;;10498478;28;20388;-70
2021/09/25 15:15:39;;;;;;;16.63;8.98;;;20.40;76.00;;;;;;10499373;28;20029;-67
2021/09/25 15:20:40;;;;;;;23.05;9.15;;;20.40;75.90;;;;;;10502165;28;20062;-65
2021/09/25 15:25:41;;;;;;;17.98;9.18;;;20.40;76.60;;;;;;10501738;28;20040;-70
2021/09/25 15:30:41;;;;;;;21.45;8.82;;;20.40;78.50;;;;;;10485694;28;20114;-61
2021/09/25 15:35:43;;;;;;;43.83;11.27;;;20.40;77.20;;;;;;10497177;28;20048;-68
2021/09/25 15:40:44;;;;;;;17.35;9.00;;;20.30;76.30;;;;;;10497206;28;20044;-64
2021/09/25 15:45:45;;;;;;;45.08;15.10;;;20.40;76.80;;;;;;10494334;28;20476;-65
2021/09/25 15:50:49;;;;;;;53.15;17.65;;;20.50;78.10;;;;;;10495492;28;20055;-70
2021/09/25 15:55:50;;;;;;;30.27;12.20;;;20.70;76.10;;;;;;10497289;28;20034;-63
2021/09/25 16:00:50;;;;;;;32.88;10.55;;;20.60;77.80;;;;;;10490241;28;20127;-64
2021/09/25 16:05:51;;;;;;;37.83;12.55;;;20.60;77.60;;;;;;10492551;28;20060;-63
2021/09/25 16:10:52;;;;;;;34.97;11.73;;;20.60;77.80;;;;;;10496100;28;20119;-67
2021/09/25 16:15:53;;;;;;;30.50;13.45;;;20.60;77.80;;;;;;10495848;28;20036;-63
2021/09/25 16:20:54;;;;;;;29.15;10.93;;;20.60;77.70;;;;;;10466787;28;20053;-65
2021/09/25 16:25:57;;;;;;;29.83;9.95;;;20.60;78.00;;;;;;10495594;28;20435;-60
2021/09/25 16:30:57;;;;;;;29.15;10.40;;;20.50;78.10;;;;;;10494573;28;20087;-60
2021/09/25 16:35:58;;;;;;;23.20;10.48;;;20.60;78.20;;;;;;10497208;28;20075;-61
2021/09/25 16:40:59;;;;;;;23.48;8.95;;;20.40;78.40;;;;;;10497469;28;20103;-61
2021/09/25 16:46:00;;;;;;;24.45;8.57;;;20.40;78.80;;;;;;10495924;28;20526;-64
2021/09/25 16:51:00;;;;;;;114.88;26.38;;;20.30;78.80;;;;;;10495761;28;20037;-66
2021/09/25 16:56:01;;;;;;;43.45;14.15;;;20.20;79.10;;;;;;10495870;28;20100;-66
2021/09/25 17:01:02;;;;;;;34.05;10.93;;;20.20;78.90;;;;;;10495309;28;20500;-66
2021/09/25 17:06:04;;;;;;;47.95;12.80;;;20.10;78.70;;;;;;10494479;28;20036;-68
2021/09/25 17:11:04;;;;;;;36.58;11.80;;;20.20;78.50;;;;;;10478441;28;20078;-72
2021/09/25 17:16:05;;;;;;;33.17;11.98;;;20.10;78.30;;;;;;10478644;28;20505;-72
2021/09/25 17:21:06;;;;;;;32.22;11.35;;;20.20;78.40;;;;;;10503961;28;20033;-72
2021/09/25 17:26:07;;;;;;;29.98;11.95;;;20.20;78.20;;;;;;10477859;28;20016;-70
2021/09/25 17:31:11;;;;;;;25.92;9.30;;;20.20;78.40;;;;;;10483672;28;20076;-69
2021/09/25 17:36:13;;;;;;;35.47;10.45;;;20.10;78.30;;;;;;10501795;28;20036;-64
2021/09/25 17:41:14;;;;;;;29.23;11.65;;;20.30;77.70;;;;;;10486367;28;20028;-66
2021/09/25 17:46:16;;;;;;;23.40;9.65;;;20.30;77.80;;;;;;10501774;28;20540;-64
2021/09/25 17:51:17;;;;;;;23.77;9.02;;;20.10;77.80;;;;;;10483806;28;20051;-74
2021/09/25 17:56:20;;;;;;;29.27;11.20;;;20.10;77.80;;;;;;10501576;28;20044;-72
2021/09/25 18:01:22;;;;;;;25.83;9.35;;;20.10;77.80;;;;;;10484443;28;20489;-69
2021/09/25 18:06:23;;;;;;;19.67;8.30;;;20.10;77.90;;;;;;10500789;28;20419;-73
2021/09/25 18:11:25;;;;;;;23.63;9.18;;;20.00;77.90;;;;;;10500261;28;20096;-71
2021/09/25 18:16:25;;;;;;;21.90;10.25;;;20.10;77.90;;;;;;10499896;28;20028;-72
2021/09/25 18:21:27;;;;;;;16.95;8.38;;;20.10;77.80;;;;;;10484750;28;20090;-66
2021/09/25 18:26:27;;;;;;;20.77;8.57;;;20.10;77.80;;;;;;10500328;28;20021;-72
2021/09/25 18:31:28;;;;;;;20.80;9.52;;;20.10;77.80;;;;;;10498443;28;20045;-72
2021/09/25 18:36:29;;;;;;;25.25;8.13;;;20.10;77.80;;;;;;10482547;28;20083;-72
2021/09/25 18:41:30;;;;;;;22.50;9.90;;;20.10;77.80;;;;;;10498807;28;20036;-74
2021/09/25 18:46:31;;;;;;;17.75;8.15;;;20.10;77.80;;;;;;10497037;28;20036;-70
2021/09/25 18:51:33;;;;;;;17.38;8.90;;;20.10;77.80;;;;;;10482479;28;20546;-74
2021/09/25 18:56:34;;;;;;;18.63;8.20;;;20.10;77.80;;;;;;10499223;28;20021;-75
2021/09/25 19:01:35;;;;;;;12.55;7.85;;;20.10;77.70;;;;;;10498912;28;20484;-74
2021/09/25 19:06:36;;;;;;;14.75;7.40;;;20.10;77.70;;;;;;10500380;28;20100;-72
2021/09/25 19:11:37;;;;;;;16.13;8.02;;;20.10;77.70;;;;;;10497585;28;20086;-71
2021/09/25 19:16:38;;;;;;;19.27;8.57;;;20.10;77.70;;;;;;10496852;28;20119;-73
2021/09/25 19:21:40;;;;;;;17.45;7.65;;;20.10;77.80;;;;;;10499983;28;20505;-68
2021/09/25 19:26:40;;;;;;;15.63;7.47;;;20.10;77.60;;;;;;10498537;28;20120;-68
2021/09/25 19:31:41;;;;;;;15.38;6.93;;;20.00;77.70;;;;;;10492019;28;20515;-67
2021/09/25 19:36:42;;;;;;;18.90;6.75;;;20.00;77.90;;;;;;10496137;28;20408;-67
2021/09/25 19:41:44;;;;;;;14.85;6.53;;;19.90;77.90;;;;;;10496662;28;20052;-68
2021/09/25 19:46:45;;;;;;;16.38;7.57;;;19.90;77.90;;;;;;10497536;28;20426;-68
2021/09/25 19:51:45;;;;;;;12.00;6.75;;;19.90;77.90;;;;;;10481026;28;20031;-68
2021/09/25 19:56:46;;;;;;;12.82;6.30;;;19.90;77.90;;;;;;10480927;28;20021;-68
2021/09/25 20:01:52;;;;;;;11.60;6.68;;;19.90;77.80;;;;;;10497441;28;20144;-68
2021/09/25 20:06:55;;;;;;;14.02;6.95;;;19.90;77.90;;;;;;10497696;28;20024;-68
2021/09/25 20:11:55;;;;;;;10.45;6.68;;;19.90;77.80;;;;;;10497044;28;20032;-68
2021/09/25 20:16:56;;;;;;;11.13;6.45;;;19.80;77.80;;;;;;10480562;28;20063;-68
2021/09/25 20:21:57;;;;;;;16.48;7.43;;;19.80;77.60;;;;;;10505636;28;20520;-69
2021/09/25 20:26:57;;;;;;;11.57;5.65;;;19.80;77.70;;;;;;10479459;28;20523;-69
2021/09/25 20:31:58;;;;;;;13.68;7.22;;;19.80;77.60;;;;;;10495984;28;20090;-68
2021/09/25 20:36:59;;;;;;;11.50;5.40;;;19.80;77.50;;;;;;10496362;28;20036;-69
2021/09/25 20:42:00;;;;;;;8.32;5.90;;;19.80;77.30;;;;;;10483004;28;20043;-69
2021/09/25 20:47:00;;;;;;;12.20;6.97;;;19.80;77.20;;;;;;10496122;28;20564;-69
2021/09/25 20:52:01;;;;;;;7.78;5.43;;;19.70;77.10;;;;;;10495810;28;20062;-69
2021/09/25 20:57:03;;;;;;;12.25;6.30;;;19.80;77.10;;;;;;10500118;28;20063;-68
2021/09/25 21:02:04;;;;;;;8.52;6.07;;;19.70;77.00;;;;;;10496935;28;20028;-68
2021/09/25 21:07:04;;;;;;;10.48;5.82;;;19.70;76.90;;;;;;10498015;28;20028;-69
2021/09/25 21:12:06;;;;;;;8.25;5.32;;;19.70;76.90;;;;;;10503799;28;20084;-68
2021/09/25 21:17:06;;;;;;;10.50;5.68;;;19.70;76.90;;;;;;10496270;28;20460;-68
2021/09/25 21:22:07;;;;;;;8.05;5.40;;;19.70;76.80;;;;;;10509758;28;20123;-68
2021/09/25 21:27:08;;;;;;;7.95;5.40;;;19.70;76.80;;;;;;10486103;28;20032;-68
2021/09/25 21:32:10;;;;;;;9.63;5.45;;;19.70;76.70;;;;;;10501655;28;20036;-68
2021/09/25 21:37:10;;;;;;;9.10;5.35;;;19.70;76.60;;;;;;10503120;28;20107;-67
2021/09/25 21:42:11;;;;;;;10.65;5.60;;;19.70;76.50;;;;;;10486292;28;20131;-68
2021/09/25 21:47:13;;;;;;;9.88;5.38;;;19.70;76.50;;;;;;10502747;28;20024;-68
2021/09/25 21:52:14;;;;;;;9.85;5.38;;;19.70;76.50;;;;;;10483848;28;20027;-69
2021/09/25 21:57:15;;;;;;;9.50;5.82;;;19.70;76.30;;;;;;10503419;28;20037;-67
2021/09/25 22:02:16;;;;;;;7.47;5.10;;;19.60;76.20;;;;;;10502373;28;20035;-68
2021/09/25 22:07:16;;;;;;;14.63;6.03;;;19.70;76.20;;;;;;10501684;28;20066;-67
2021/09/25 22:12:17;;;;;;;6.93;5.32;;;19.70;76.10;;;;;;10501403;28;20445;-68
2021/09/25 22:17:18;;;;;;;7.95;5.70;;;19.60;76.00;;;;;;10501534;28;20194;-68
2021/09/25 22:22:18;;;;;;;9.43;5.38;;;19.60;76.00;;;;;;10510840;28;20067;-68
2021/09/25 22:27:19;;;;;;;10.00;6.03;;;19.60;75.90;;;;;;10500800;28;20044;-68
2021/09/25 22:32:25;;;;;;;6.85;4.95;;;19.60;75.80;;;;;;10484294;28;20041;-68
2021/09/25 22:37:35;;;;;;;9.25;6.75;;;19.60;75.70;;;;;;10488788;28;20028;-68
2021/09/25 22:42:36;;;;;;;7.35;5.65;;;19.60;75.70;;;;;;10500269;28;20245;-68
2021/09/25 22:47:39;;;;;;;6.68;4.63;;;19.60;75.60;;;;;;10517109;28;20025;-68
2021/09/25 22:52:40;;;;;;;7.65;5.18;;;19.60;75.60;;;;;;10500532;28;20032;-68
2021/09/25 22:57:41;;;;;;;7.13;5.25;;;19.50;75.50;;;;;;10499957;28;20108;-68
2021/09/25 23:02:42;;;;;;;7.00;5.60;;;19.50;75.50;;;;;;10483125;28;20059;-68
2021/09/25 23:07:43;;;;;;;6.80;4.53;;;19.50;75.50;;;;;;10483048;28;20052;-68
2021/09/25 23:12:44;;;;;;;7.68;4.63;;;19.50;75.30;;;;;;10500613;28;20092;-68
2021/09/25 23:17:45;;;;;;;6.53;5.40;;;19.50;75.30;;;;;;10499179;28;20128;-68
2021/09/25 23:22:46;;;;;;;9.43;5.43;;;19.60;75.30;;;;;;10492283;28;20051;-69
2021/09/25 23:27:47;;;;;;;6.35;5.15;;;19.60;75.20;;;;;;10498588;28;20068;-68
2021/09/25 23:32:48;;;;;;;7.03;5.78;;;19.50;75.10;;;;;;10490854;28;20077;-68
2021/09/25 23:37:48;;;;;;;8.80;6.30;;;19.50;75.10;;;;;;10498435;28;20048;-68
2021/09/25 23:42:49;;;;;;;8.15;5.30;;;19.50;74.90;;;;;;10498197;28;20732;-68
2021/09/25 23:47:50;;;;;;;6.22;5.43;;;19.50;74.90;;;;;;10499168;28;20099;-68
2021/09/25 23:52:50;;;;;;;6.35;5.13;;;19.50;74.90;;;;;;10481002;28;20039;-68
2021/09/25 23:57:51;;;;;;;7.43;4.95;;;19.50;74.90;;;;;;10497696;28;20032;-68
